createdAt,value
2023-01-19T06:00:30.588Z,95.37
2023-01-19T06:01:32.359Z,95.06
2023-01-19T06:02:31.873Z,94.95
2023-01-19T06:03:31.513Z,94.74
2023-01-19T06:04:31.558Z,94.74
2023-01-19T06:05:31.625Z,94.64
2023-01-19T06:06:31.581Z,94.74
2023-01-19T06:07:32.117Z,94.74
2023-01-19T06:08:31.488Z,94.74
2023-01-19T06:09:31.454Z,94.64
2023-01-19T06:10:31.447Z,94.70
2023-01-19T06:11:31.498Z,94.95
2023-01-19T06:12:31.469Z,94.38
2023-01-19T06:13:31.456Z,94.74
2023-01-19T06:14:31.408Z,94.95
2023-01-19T06:15:31.413Z,95.06
2023-01-19T06:16:31.461Z,94.95
2023-01-19T06:17:31.331Z,95.06
2023-01-19T06:18:31.385Z,94.95
2023-01-19T06:19:31.349Z,94.95
2023-01-19T06:20:31.370Z,95.06
2023-01-19T06:21:31.342Z,94.85
2023-01-19T06:22:31.379Z,95.06
2023-01-19T06:23:31.313Z,95.37
2023-01-19T06:24:31.361Z,95.58
2023-01-19T06:25:31.298Z,95.68
2023-01-19T06:26:31.401Z,96.06
2023-01-19T06:27:31.557Z,96.42
2023-01-19T06:28:31.309Z,96.42
2023-01-19T06:29:31.407Z,96.06
2023-01-19T06:30:31.378Z,95.79
2023-01-19T06:31:31.484Z,95.58
2023-01-19T06:32:31.298Z,95.23
2023-01-19T06:33:31.390Z,95.68
2023-01-19T06:34:31.405Z,95.37
2023-01-19T06:35:31.307Z,95.33
2023-01-19T06:36:31.262Z,95.37
2023-01-19T06:37:31.274Z,94.95
2023-01-19T06:38:31.356Z,95.17
2023-01-19T06:39:31.227Z,95.17
2023-01-19T06:40:31.235Z,95.17
2023-01-19T06:41:31.159Z,95.06
2023-01-19T06:42:31.203Z,95.37
2023-01-19T06:43:31.342Z,94.95
2023-01-19T06:44:31.248Z,94.95
2023-01-19T06:45:31.280Z,95.06
2023-01-19T06:46:31.157Z,95.06
2023-01-19T06:47:31.191Z,95.06
2023-01-19T06:48:31.166Z,94.85
2023-01-19T06:49:31.205Z,95.06
2023-01-19T06:50:31.145Z,95.06
2023-01-19T06:51:31.277Z,95.17
2023-01-19T06:52:31.233Z,94.95
2023-01-19T06:53:31.122Z,95.37
2023-01-19T06:54:31.089Z,94.95
2023-01-19T06:55:31.266Z,95.06
2023-01-19T06:56:31.337Z,95.06
2023-01-19T06:57:31.151Z,94.81
2023-01-19T06:59:04.857Z,95.06
2023-01-19T06:59:31.844Z,95.06
2023-01-19T07:00:31.912Z,95.06
2023-01-19T07:01:31.195Z,94.60
2023-01-19T07:02:31.363Z,95.01
2023-01-19T07:03:31.193Z,94.60
2023-01-19T07:04:31.257Z,94.60
2023-01-19T07:05:31.153Z,94.81
2023-01-19T07:06:31.145Z,94.60
2023-01-19T07:07:31.193Z,94.81
2023-01-19T07:08:31.147Z,94.60
2023-01-19T07:09:31.165Z,94.91
2023-01-19T07:11:26.479Z,94.70
2023-01-19T07:12:03.816Z,94.60
2023-01-19T07:12:31.643Z,94.70
2023-01-19T07:13:31.452Z,94.91
2023-01-19T07:14:31.301Z,94.70
2023-01-19T07:15:31.102Z,94.91
2023-01-19T07:16:31.177Z,94.76
2023-01-19T07:17:31.159Z,94.76
2023-01-19T07:18:31.148Z,94.45
2023-01-19T07:19:31.141Z,94.66
2023-01-19T07:20:31.021Z,94.34
2023-01-19T07:21:31.055Z,94.13
2023-01-19T07:22:31.243Z,94.03
2023-01-19T07:23:31.073Z,94.13
2023-01-19T07:24:30.995Z,94.13
2023-01-19T07:25:30.988Z,93.88
2023-01-19T07:26:30.978Z,93.88
2023-01-19T07:27:31.098Z,94.20
2023-01-19T07:28:31.016Z,94.30
2023-01-19T07:29:30.888Z,94.40
2023-01-19T07:30:30.995Z,94.51
2023-01-19T07:31:31.025Z,94.20
2023-01-19T07:32:31.175Z,94.40
2023-01-19T07:33:31.246Z,94.26
2023-01-19T07:34:30.812Z,94.26
2023-01-19T07:35:30.855Z,94.36
2023-01-19T07:36:30.866Z,93.95
2023-01-19T07:37:30.831Z,93.84
2023-01-19T07:38:30.832Z,94.15
2023-01-19T07:39:30.783Z,94.26
2023-01-19T07:40:30.761Z,94.26
2023-01-19T07:41:30.873Z,94.26
2023-01-19T07:42:30.786Z,94.26
2023-01-19T07:43:30.923Z,94.05
2023-01-19T07:44:30.767Z,93.63
2023-01-19T07:45:30.829Z,93.95
2023-01-19T07:46:30.818Z,93.84
2023-01-19T07:47:30.887Z,94.05
2023-01-19T07:48:30.698Z,93.84
2023-01-19T07:49:30.959Z,93.95
2023-01-19T07:50:30.846Z,93.84
2023-01-19T07:51:30.832Z,93.84
2023-01-19T07:52:30.895Z,93.95
2023-01-19T07:53:31.689Z,93.63
2023-01-19T07:54:30.889Z,93.63
2023-01-19T07:55:30.872Z,93.74
2023-01-19T07:56:32.707Z,93.70
2023-01-19T07:57:30.752Z,92.90
2023-01-19T07:58:30.731Z,92.65
2023-01-19T08:00:03.307Z,92.54
2023-01-19T08:00:31.336Z,93.38
2023-01-19T08:01:31.158Z,92.85
2023-01-19T08:02:31.807Z,93.70
2023-01-19T08:03:30.764Z,92.85
2023-01-19T08:04:30.710Z,93.70
2023-01-19T08:05:30.837Z,93.80
2023-01-19T08:06:30.927Z,93.80
2023-01-19T08:07:30.761Z,92.85
2023-01-19T08:08:30.763Z,92.96
2023-01-19T08:09:30.727Z,93.27
2023-01-19T08:10:30.655Z,93.38
2023-01-19T08:11:30.725Z,92.82
2023-01-19T08:12:30.687Z,93.54
2023-01-19T08:13:30.575Z,92.96
2023-01-19T08:14:30.607Z,92.71
2023-01-19T08:15:30.763Z,93.33
2023-01-19T08:16:30.717Z,92.60
2023-01-19T08:17:30.704Z,92.60
2023-01-19T08:18:30.728Z,93.23
2023-01-19T08:19:30.638Z,93.23
2023-01-19T08:20:30.614Z,92.71
2023-01-19T08:21:32.029Z,92.40
2023-01-19T08:22:30.618Z,92.56
2023-01-19T08:23:30.585Z,92.50
2023-01-19T08:24:30.529Z,92.35
2023-01-19T08:25:30.521Z,92.35
2023-01-19T08:26:30.594Z,92.66
2023-01-19T08:27:38.645Z,92.10
2023-01-19T08:28:30.737Z,92.25
2023-01-19T08:29:30.529Z,92.21
2023-01-19T08:30:30.616Z,92.35
2023-01-19T08:31:30.655Z,92.52
2023-01-19T08:32:30.693Z,92.10
2023-01-19T08:33:30.675Z,92.00
2023-01-19T08:34:30.546Z,91.47
2023-01-19T08:35:30.545Z,91.37
2023-01-19T08:36:30.541Z,92.10
2023-01-19T08:37:31.276Z,92.31
2023-01-19T08:38:30.673Z,92.00
2023-01-19T08:39:30.532Z,92.00
2023-01-19T08:40:30.439Z,91.96
2023-01-19T08:41:30.489Z,92.21
2023-01-19T08:42:30.399Z,91.89
2023-01-19T08:43:30.374Z,92.21
2023-01-19T08:44:30.367Z,91.94
2023-01-19T08:45:30.396Z,92.66
2023-01-19T08:46:30.400Z,92.46
2023-01-19T08:47:30.458Z,92.41
2023-01-19T08:48:30.399Z,92.66
2023-01-19T08:49:30.390Z,92.46
2023-01-19T08:50:30.401Z,92.46
2023-01-19T08:51:30.381Z,92.10
2023-01-19T08:52:30.365Z,92.10
2023-01-19T08:53:30.330Z,92.94
2023-01-19T08:54:30.363Z,93.04
2023-01-19T08:55:30.467Z,92.00
2023-01-19T08:56:30.406Z,92.21
2023-01-19T08:57:30.447Z,92.83
2023-01-19T08:58:30.476Z,92.47
2023-01-19T08:59:30.284Z,92.52
2023-01-19T09:00:30.388Z,92.00
2023-01-19T09:01:30.636Z,92.37
2023-01-19T09:02:30.577Z,91.79
2023-01-19T09:03:30.535Z,91.85
2023-01-19T09:04:30.969Z,92.21
2023-01-19T09:05:30.468Z,92.41
2023-01-19T09:06:30.434Z,92.47
2023-01-19T09:07:32.445Z,92.37
2023-01-19T09:08:30.290Z,92.27
2023-01-19T09:09:30.391Z,91.85
2023-01-19T09:10:30.214Z,91.75
2023-01-19T09:11:30.831Z,91.96
2023-01-19T09:12:30.338Z,91.75
2023-01-19T09:13:30.371Z,91.96
2023-01-19T09:14:30.302Z,91.96
2023-01-19T09:15:30.251Z,91.75
2023-01-19T09:16:30.394Z,91.96
2023-01-19T09:18:03.924Z,91.75
2023-01-19T09:18:30.980Z,91.96
2023-01-19T09:19:33.740Z,91.54
2023-01-19T09:20:30.463Z,92.31
2023-01-19T09:21:30.369Z,92.10
2023-01-19T09:22:30.315Z,91.96
2023-01-19T09:23:30.478Z,92.21
2023-01-19T09:24:30.332Z,92.73
2023-01-19T09:25:30.218Z,92.83
2023-01-19T09:26:32.829Z,93.46
2023-01-19T09:27:30.255Z,94.09
2023-01-19T09:28:30.306Z,94.19
2023-01-19T09:29:30.218Z,94.50
2023-01-19T09:30:30.249Z,94.19
2023-01-19T09:31:30.291Z,94.61
2023-01-19T09:32:30.169Z,95.34
2023-01-19T09:33:30.163Z,95.86
2023-01-19T09:34:30.233Z,96.91
2023-01-19T09:35:30.196Z,97.01
2023-01-19T09:36:30.191Z,98.05
2023-01-19T09:37:30.155Z,97.58
2023-01-19T09:38:30.157Z,98.16
2023-01-19T09:39:30.269Z,98.16
2023-01-19T09:40:30.228Z,98.72
2023-01-19T09:41:30.144Z,98.72
2023-01-19T09:42:30.248Z,99.29
2023-01-19T09:43:30.220Z,99.40
2023-01-19T09:44:30.156Z,99.46
2023-01-19T09:45:30.293Z,99.51
2023-01-19T09:46:30.393Z,99.77
2023-01-19T09:47:30.030Z,99.77
2023-01-19T09:48:29.999Z,99.46
2023-01-19T09:49:29.943Z,99.35
2023-01-19T09:50:30.002Z,99.77
2023-01-19T09:51:29.889Z,99.62
2023-01-19T09:52:30.004Z,99.41
2023-01-19T09:53:29.980Z,99.73
2023-01-19T09:54:29.888Z,99.20
2023-01-19T09:55:30.129Z,99.10
2023-01-19T09:56:29.970Z,98.47
2023-01-19T09:57:30.004Z,98.16
2023-01-19T09:58:29.965Z,98.47
2023-01-19T09:59:30.924Z,98.22
2023-01-19T10:00:29.994Z,98.05
2023-01-19T10:01:30.984Z,97.95
2023-01-19T10:02:30.079Z,98.37
2023-01-19T10:03:30.133Z,97.85
2023-01-19T10:04:30.139Z,97.32
2023-01-19T10:05:30.081Z,97.91
2023-01-19T10:06:30.053Z,98.26
2023-01-19T10:07:30.038Z,98.11
2023-01-19T10:08:30.085Z,97.91
2023-01-19T10:09:30.040Z,98.22
2023-01-19T10:10:29.845Z,97.59
2023-01-19T10:11:38.118Z,97.07
2023-01-19T10:12:32.582Z,97.44
2023-01-19T10:13:30.492Z,97.13
2023-01-19T10:14:30.022Z,96.92
2023-01-19T10:15:29.897Z,96.71
2023-01-19T10:16:30.108Z,96.71
2023-01-19T10:17:29.985Z,96.40
2023-01-19T10:18:29.894Z,96.97
2023-01-19T10:19:29.816Z,96.61
2023-01-19T10:20:29.851Z,95.72
2023-01-19T10:21:29.767Z,96.30
2023-01-19T10:22:29.970Z,95.61
2023-01-19T10:23:29.896Z,96.30
2023-01-19T10:24:29.807Z,96.40
2023-01-19T10:25:30.187Z,96.61
2023-01-19T10:26:30.053Z,95.67
2023-01-19T10:27:29.980Z,95.88
2023-01-19T10:28:30.028Z,95.15
2023-01-19T10:29:29.982Z,95.78
2023-01-19T10:30:29.961Z,95.40
2023-01-19T10:31:29.984Z,95.40
2023-01-19T10:32:29.935Z,95.67
2023-01-19T10:33:30.011Z,95.82
2023-01-19T10:34:29.965Z,95.40
2023-01-19T10:35:29.978Z,96.23
2023-01-19T10:36:29.761Z,96.09
2023-01-19T10:37:29.987Z,96.76
2023-01-19T10:38:29.822Z,95.82
2023-01-19T10:39:29.996Z,95.82
2023-01-19T10:40:29.766Z,95.50
2023-01-19T10:41:29.996Z,96.34
2023-01-19T10:42:29.707Z,96.97
2023-01-19T10:43:29.828Z,96.86
2023-01-19T10:44:29.760Z,96.34
2023-01-19T10:45:29.790Z,95.72
2023-01-19T10:46:29.744Z,95.78
2023-01-19T10:47:29.804Z,95.72
2023-01-19T10:48:29.708Z,95.50
2023-01-19T10:49:29.756Z,95.78
2023-01-19T10:50:29.980Z,95.98
2023-01-19T10:52:03.204Z,95.88
2023-01-19T10:52:30.967Z,95.36
2023-01-19T10:53:30.049Z,95.67
2023-01-19T10:54:29.830Z,94.69
2023-01-19T10:55:29.703Z,95.15
2023-01-19T10:56:29.563Z,94.94
2023-01-19T10:57:29.812Z,95.15
2023-01-19T10:58:29.783Z,95.46
2023-01-19T10:59:29.741Z,95.67
2023-01-19T11:00:29.974Z,94.73
2023-01-19T11:01:29.741Z,94.73
2023-01-19T11:02:29.828Z,95.67
2023-01-19T11:03:29.558Z,95.56
2023-01-19T11:04:29.547Z,95.31
2023-01-19T11:05:29.644Z,95.98
2023-01-19T11:06:29.490Z,94.94
2023-01-19T11:07:29.501Z,94.63
2023-01-19T11:08:29.685Z,94.94
2023-01-19T11:09:29.498Z,94.88
2023-01-19T11:10:29.400Z,94.84
2023-01-19T11:11:29.549Z,94.94
2023-01-19T11:12:30.051Z,94.52
2023-01-19T11:13:29.511Z,94.73
2023-01-19T11:14:29.743Z,94.78
2023-01-19T11:15:30.221Z,94.84
2023-01-19T11:16:29.812Z,95.15
2023-01-19T11:17:29.775Z,94.84
2023-01-19T11:18:29.610Z,94.94
2023-01-19T11:19:29.605Z,94.63
2023-01-19T11:20:29.673Z,94.31
2023-01-19T11:21:29.799Z,94.90
2023-01-19T11:22:29.576Z,94.52
2023-01-19T11:23:29.627Z,94.52
2023-01-19T11:24:29.397Z,94.94
2023-01-19T11:26:03.079Z,94.52
2023-01-19T11:26:29.940Z,94.73
2023-01-19T11:27:31.357Z,94.79
2023-01-19T11:28:29.460Z,94.48
2023-01-19T11:29:29.773Z,94.52
2023-01-19T11:30:29.543Z,94.52
2023-01-19T11:31:29.666Z,94.17
2023-01-19T11:32:29.532Z,94.27
2023-01-19T11:33:29.501Z,94.27
2023-01-19T11:34:29.564Z,94.06
2023-01-19T11:35:29.372Z,94.21
2023-01-19T11:36:29.528Z,94.58
2023-01-19T11:37:29.679Z,94.48
2023-01-19T11:39:03.100Z,94.48
2023-01-19T11:39:30.607Z,94.54
2023-01-19T11:40:29.766Z,94.54
2023-01-19T11:41:29.458Z,94.23
2023-01-19T11:42:29.504Z,94.08
2023-01-19T11:43:39.724Z,93.60
2023-01-19T11:44:31.827Z,93.91
2023-01-19T11:45:29.365Z,94.02
2023-01-19T11:46:29.508Z,94.12
2023-01-19T11:47:29.489Z,93.71
2023-01-19T11:48:29.408Z,94.37
2023-01-19T11:49:29.326Z,94.17
2023-01-19T11:50:29.388Z,94.69
2023-01-19T11:51:29.430Z,95.21
2023-01-19T11:52:29.272Z,95.21
2023-01-19T11:53:29.380Z,95.52
2023-01-19T11:54:29.280Z,95.42
2023-01-19T11:55:29.236Z,95.73
2023-01-19T11:56:29.256Z,96.25
2023-01-19T11:57:29.280Z,95.79
2023-01-19T11:58:29.135Z,95.31
2023-01-19T11:59:29.268Z,95.79
2023-01-19T12:00:29.215Z,95.27
2023-01-19T12:01:29.320Z,95.33
2023-01-19T12:02:29.262Z,94.96
2023-01-19T12:03:29.232Z,94.90
2023-01-19T12:04:29.270Z,95.52
2023-01-19T12:05:29.147Z,95.42
2023-01-19T12:06:29.216Z,95.43
2023-01-19T12:07:29.374Z,95.37
2023-01-19T12:08:29.130Z,95.17
2023-01-19T12:09:29.127Z,95.27
2023-01-19T12:10:29.156Z,95.42
2023-01-19T12:11:29.123Z,96.73
2023-01-19T12:12:29.179Z,96.31
2023-01-19T12:13:29.350Z,96.00
2023-01-19T12:14:29.581Z,95.37
2023-01-19T12:15:29.388Z,95.37
2023-01-19T12:16:29.249Z,95.06
2023-01-19T12:17:30.116Z,95.27
2023-01-19T12:18:29.282Z,95.27
2023-01-19T12:19:29.454Z,95.31
2023-01-19T20:40:54.251Z,99.99
2023-01-19T20:43:57.498Z,99.99
2023-01-19T20:44:59.567Z,99.99
2023-01-19T20:45:59.603Z,99.99
2023-01-19T20:46:58.920Z,99.99
2023-01-19T20:47:58.798Z,99.99
2023-01-19T20:48:58.701Z,99.99
2023-01-19T20:50:30.954Z,99.99
2023-01-19T20:51:00.842Z,99.99
2023-01-19T20:53:57.119Z,99.99
2023-01-19T20:57:06.736Z,99.99
2023-01-19T20:58:09.118Z,99.99
2023-01-19T20:59:32.602Z,99.99
2023-01-19T21:00:09.238Z,99.99
2023-01-19T21:04:04.636Z,98.62
2023-01-19T21:05:33.657Z,98.56
2023-01-19T21:08:19.591Z,98.71
2023-01-19T21:09:54.299Z,99.13
2023-01-19T21:10:22.297Z,99.87
2023-01-19T21:13:30.592Z,99.99
2023-01-19T21:16:48.643Z,99.99
2023-01-19T21:29:33.281Z,98.25
2023-01-19T21:32:32.640Z,98.72
2023-01-19T21:34:01.363Z,98.83
2023-01-19T21:34:35.387Z,98.72
2023-01-19T21:35:34.429Z,98.83
2023-01-19T21:36:34.251Z,98.52
2023-01-19T21:37:34.602Z,98.35
2023-01-19T21:38:34.072Z,97.99
2023-01-19T21:39:33.937Z,98.56
2023-01-19T21:40:34.217Z,98.21
2023-01-19T21:41:33.979Z,97.68
2023-01-19T21:42:34.038Z,98.21
2023-01-19T21:43:34.006Z,97.99
2023-01-19T21:44:34.019Z,97.99
2023-01-19T21:45:34.588Z,97.95
2023-01-19T21:46:33.885Z,98.41
2023-01-19T21:47:33.921Z,98.37
2023-01-19T21:48:34.045Z,98.21
2023-01-19T21:49:33.815Z,98.16
2023-01-19T21:50:34.118Z,98.47
2023-01-19T21:51:33.856Z,98.47
2023-01-19T21:52:34.054Z,98.47
2023-01-19T21:53:33.837Z,98.68
2023-01-19T21:54:34.185Z,98.89
2023-01-19T21:55:34.115Z,98.26
2023-01-19T21:56:34.010Z,98.10
2023-01-19T21:57:33.965Z,97.72
2023-01-19T21:58:33.951Z,98.04
2023-01-19T21:59:33.625Z,98.61
2023-01-19T22:00:33.694Z,98.39
2023-01-19T22:01:33.931Z,98.67
2023-01-19T22:02:38.974Z,98.25
2023-01-19T22:03:35.970Z,98.71
2023-01-19T22:04:33.980Z,98.13
2023-01-19T22:05:36.210Z,98.97
2023-01-19T22:06:33.754Z,98.71
2023-01-19T22:07:33.712Z,98.71
2023-01-19T22:08:33.685Z,98.92
2023-01-19T22:09:33.637Z,98.50
2023-01-19T22:10:33.748Z,98.92
2023-01-19T22:11:33.635Z,99.13
2023-01-19T22:12:34.246Z,99.08
2023-01-19T22:13:33.703Z,98.56
2023-01-19T22:14:33.998Z,98.72
2023-01-19T22:15:33.866Z,98.46
2023-01-19T22:16:34.258Z,98.21
2023-01-19T22:17:34.004Z,97.89
2023-01-19T22:18:35.997Z,98.31
2023-01-19T22:21:32.179Z,98.41
2023-01-19T22:22:35.284Z,98.04
2023-01-19T22:23:35.235Z,97.68
2023-01-19T22:24:33.723Z,97.16
2023-01-19T22:26:06.716Z,96.78
2023-01-19T22:26:34.787Z,97.09
2023-01-19T22:27:33.860Z,97.87
2023-01-19T22:28:33.749Z,98.13
2023-01-19T22:31:31.050Z,99.18
2023-01-19T22:32:33.777Z,98.97
2023-01-19T22:33:32.405Z,98.75
2023-01-19T22:34:32.432Z,99.13
2023-01-19T22:35:32.400Z,98.92
2023-01-19T22:36:32.380Z,98.82
2023-01-19T22:37:32.428Z,99.13
2023-01-19T22:39:05.805Z,99.19
2023-01-19T22:39:33.289Z,99.19
2023-01-19T22:40:32.269Z,99.08
2023-01-19T22:41:32.168Z,99.15
2023-01-19T22:42:32.276Z,98.94
2023-01-19T22:43:32.178Z,98.62
2023-01-19T22:44:32.032Z,98.52
2023-01-19T22:45:32.329Z,97.99
2023-01-19T22:46:32.564Z,98.68
2023-01-19T22:47:32.064Z,97.99
2023-01-19T22:48:32.315Z,97.36
2023-01-19T22:49:32.323Z,97.16
2023-01-19T22:50:32.743Z,97.63
2023-01-19T22:51:32.297Z,96.90
2023-01-19T22:54:29.712Z,98.16
2023-01-19T22:55:32.392Z,97.95
2023-01-19T22:56:31.236Z,97.80
2023-01-19T22:57:31.246Z,97.28
2023-01-19T22:59:05.377Z,95.96
2023-01-19T22:59:33.159Z,96.17
2023-01-19T23:00:31.228Z,97.42
2023-01-19T23:01:31.211Z,97.47
2023-01-19T23:02:32.141Z,96.90
2023-01-19T23:03:31.049Z,98.05
2023-01-19T23:04:31.603Z,97.53
2023-01-19T23:05:31.489Z,96.80
2023-01-19T23:06:31.378Z,97.49
2023-01-19T23:07:30.954Z,97.69
2023-01-19T23:08:30.880Z,96.86
2023-01-19T23:09:30.813Z,97.06
2023-01-19T23:10:30.774Z,96.75
2023-01-19T23:11:30.973Z,95.92
2023-01-19T23:12:30.992Z,96.96
2023-01-19T23:13:31.061Z,96.65
2023-01-19T23:15:04.201Z,96.23
2023-01-19T23:15:32.253Z,95.98
2023-01-19T23:16:31.319Z,95.92
2023-01-19T23:17:30.849Z,95.76
2023-01-19T23:18:31.251Z,95.29
2023-01-19T23:19:31.069Z,94.91
2023-01-19T23:20:30.907Z,95.33
2023-01-19T23:21:31.111Z,96.17
2023-01-19T23:22:31.345Z,95.86
2023-01-19T23:25:29.302Z,96.90
2023-01-19T23:26:34.061Z,97.74
2023-01-19T23:27:30.781Z,97.78
2023-01-19T23:28:30.618Z,98.31
2023-01-19T23:29:30.644Z,98.31
2023-01-19T23:30:30.702Z,98.21
2023-01-19T23:31:30.542Z,98.21
2023-01-19T23:32:30.914Z,97.68
2023-01-19T23:33:30.820Z,98.41
2023-01-19T23:34:31.003Z,98.62
2023-01-19T23:36:05.946Z,98.52
2023-01-19T23:36:31.506Z,98.67
2023-01-19T23:38:03.109Z,98.41
2023-01-19T23:38:31.687Z,98.88
2023-01-19T23:39:31.253Z,98.88
2023-01-19T23:40:30.573Z,99.08
2023-01-19T23:41:30.483Z,98.67
2023-01-19T23:42:30.476Z,98.88
2023-01-19T23:45:28.762Z,98.94
2023-01-19T23:46:31.324Z,98.62
2023-01-19T23:47:30.542Z,98.94
2023-01-19T23:48:30.262Z,98.52
2023-01-19T23:49:30.295Z,98.52
2023-01-19T23:50:30.150Z,98.72
2023-01-19T23:51:30.001Z,98.72
2023-01-19T23:52:30.689Z,98.83
2023-01-19T23:53:30.101Z,98.37
2023-01-19T23:54:30.041Z,98.83
2023-01-19T23:55:29.988Z,98.52
2023-01-19T23:56:30.220Z,98.52
2023-01-19T23:57:30.278Z,98.41
2023-01-19T23:58:30.172Z,98.72
2023-01-19T23:59:30.172Z,99.04
